sensor_id;sensor_type;location;lat;lon;timestamp;temperature;humidity
70170;DHT22;57543;45.442;9.212;2023-03-24T00:00:07;15.87;64.42
70170;DHT22;57543;45.442;9.212;2023-03-24T00:03:14;15.83;64.65
70170;DHT22;57543;45.442;9.212;2023-03-24T00:06:19;15.96;64.08
70170;DHT22;57543;45.442;9.212;2023-03-24T00:09:25;15.86;64.51
70170;DHT22;57543;45.442;9.212;2023-03-24T00:12:29;15.91;64.36
70170;DHT22;57543;45.442;9.212;2023-03-24T00:15:32;16.17;63.62
70170;DHT22;57543;45.442;9.212;2023-03-24T00:18:37;16.18;63.54
70170;DHT22;57543;45.442;9.212;2023-03-24T00:21:42;16.25;63.47
70170;DHT22;57543;45.442;9.212;2023-03-24T00:24:46;16.04;63.99
70170;DHT22;57543;45.442;9.212;2023-03-24T00:27:50;16.22;63.67
70170;DHT22;57543;45.442;9.212;2023-03-24T00:30:53;16.28;63.48
70170;DHT22;57543;45.442;9.212;2023-03-24T00:33:57;16.42;63.02
70170;DHT22;57543;45.442;9.212;2023-03-24T00:37:01;16.45;63.06
70170;DHT22;57543;45.442;9.212;2023-03-24T00:40:08;16.25;63.41
70170;DHT22;57543;45.442;9.212;2023-03-24T00:43:16;15.98;64.56
70170;DHT22;57543;45.442;9.212;2023-03-24T00:46:20;16.14;64.19
70170;DHT22;57543;45.442;9.212;2023-03-24T00:49:32;16.14;64.03
70170;DHT22;57543;45.442;9.212;2023-03-24T00:52:45;16.04;64.55
70170;DHT22;57543;45.442;9.212;2023-03-24T00:55:50;16.12;64.29
70170;DHT22;57543;45.442;9.212;2023-03-24T00:58:54;16.10;64.51
70170;DHT22;57543;45.442;9.212;2023-03-24T01:01:59;16.11;64.34
70170;DHT22;57543;45.442;9.212;2023-03-24T01:05:04;16.11;64.56
70170;DHT22;57543;45.442;9.212;2023-03-24T01:08:09;16.24;64.22
70170;DHT22;57543;45.442;9.212;2023-03-24T01:11:12;16.07;64.78
70170;DHT22;57543;45.442;9.212;2023-03-24T01:14:16;16.10;64.66
70170;DHT22;57543;45.442;9.212;2023-03-24T01:17:20;16.15;64.57
70170;DHT22;57543;45.442;9.212;2023-03-24T01:20:32;16.10;64.75
70170;DHT22;57543;45.442;9.212;2023-03-24T01:23:37;16.20;64.41
70170;DHT22;57543;45.442;9.212;2023-03-24T01:26:41;16.11;64.96
70170;DHT22;57543;45.442;9.212;2023-03-24T01:29:44;16.08;65.04
70170;DHT22;57543;45.442;9.212;2023-03-24T01:32:49;15.90;65.73
70170;DHT22;57543;45.442;9.212;2023-03-24T01:35:53;16.11;65.04
70170;DHT22;57543;45.442;9.212;2023-03-24T01:38:57;16.20;64.75
70170;DHT22;57543;45.442;9.212;2023-03-24T01:42:03;16.24;64.75
70170;DHT22;57543;45.442;9.212;2023-03-24T01:48:48;16.07;65.30
70170;DHT22;57543;45.442;9.212;2023-03-24T01:51:56;16.11;65.11
70170;DHT22;57543;45.442;9.212;2023-03-24T01:55:05;16.11;65.30
70170;DHT22;57543;45.442;9.212;2023-03-24T01:58:10;16.18;64.99
70170;DHT22;57543;45.442;9.212;2023-03-24T02:01:28;16.01;65.67
70170;DHT22;57543;45.442;9.212;2023-03-24T02:04:58;16.15;65.33
70170;DHT22;57543;45.442;9.212;2023-03-24T02:08:25;16.22;64.79
70170;DHT22;57543;45.442;9.212;2023-03-24T02:11:32;16.20;65.08
70170;DHT22;57543;45.442;9.212;2023-03-24T02:14:40;16.20;64.94
70170;DHT22;57543;45.442;9.212;2023-03-24T02:21:36;16.24;64.95
70170;DHT22;57543;45.442;9.212;2023-03-24T02:38:15;16.10;65.49
70170;DHT22;57543;45.442;9.212;2023-03-24T02:41:33;16.08;65.55
70170;DHT22;57543;45.442;9.212;2023-03-24T02:48:32;16.07;65.42
70170;DHT22;57543;45.442;9.212;2023-03-24T02:58:11;16.36;64.52
70170;DHT22;57543;45.442;9.212;2023-03-24T03:01:43;16.41;64.42
70170;DHT22;57543;45.442;9.212;2023-03-24T03:05:06;16.42;64.50
70170;DHT22;57543;45.442;9.212;2023-03-24T03:08:18;16.42;64.65
70170;DHT22;57543;45.442;9.212;2023-03-24T03:11:24;16.35;64.92
70170;DHT22;57543;45.442;9.212;2023-03-24T03:14:37;16.05;65.94
70170;DHT22;57543;45.442;9.212;2023-03-24T03:17:48;16.21;65.40
70170;DHT22;57543;45.442;9.212;2023-03-24T03:21:01;16.25;65.25
70170;DHT22;57543;45.442;9.212;2023-03-24T03:24:17;16.32;65.03
70170;DHT22;57543;45.442;9.212;2023-03-24T03:27:31;16.32;65.05
70170;DHT22;57543;45.442;9.212;2023-03-24T03:30:45;16.25;65.44
70170;DHT22;57543;45.442;9.212;2023-03-24T03:33:59;16.31;65.13
70170;DHT22;57543;45.442;9.212;2023-03-24T03:37:12;16.35;65.01
70170;DHT22;57543;45.442;9.212;2023-03-24T03:40:24;16.49;64.61
70170;DHT22;57543;45.442;9.212;2023-03-24T03:43:36;16.48;64.60
70170;DHT22;57543;45.442;9.212;2023-03-24T03:46:41;16.57;64.52
70170;DHT22;57543;45.442;9.212;2023-03-24T03:49:49;16.59;64.50
70170;DHT22;57543;45.442;9.212;2023-03-24T03:52:53;16.39;65.23
70170;DHT22;57543;45.442;9.212;2023-03-24T03:55:57;16.45;65.01
70170;DHT22;57543;45.442;9.212;2023-03-24T03:59:02;16.46;65.11
70170;DHT22;57543;45.442;9.212;2023-03-24T04:09:07;16.32;65.80
70170;DHT22;57543;45.442;9.212;2023-03-24T04:16:31;16.11;66.56
70170;DHT22;57543;45.442;9.212;2023-03-24T04:19:59;16.00;66.80
70170;DHT22;57543;45.442;9.212;2023-03-24T04:23:08;16.07;66.81
70170;DHT22;57543;45.442;9.212;2023-03-24T04:26:33;16.07;66.63
70170;DHT22;57543;45.442;9.212;2023-03-24T04:29:47;16.03;66.82
70170;DHT22;57543;45.442;9.212;2023-03-24T04:32:59;16.08;66.68
70170;DHT22;57543;45.442;9.212;2023-03-24T04:36:11;16.15;66.51
70170;DHT22;57543;45.442;9.212;2023-03-24T04:39:35;16.26;66.27
70170;DHT22;57543;45.442;9.212;2023-03-24T04:42:47;16.18;66.59
70170;DHT22;57543;45.442;9.212;2023-03-24T04:45:55;16.20;66.42
70170;DHT22;57543;45.442;9.212;2023-03-24T04:49:23;16.21;66.35
70170;DHT22;57543;45.442;9.212;2023-03-24T04:52:28;16.22;66.26
70170;DHT22;57543;45.442;9.212;2023-03-24T04:59:27;16.20;65.87
70170;DHT22;57543;45.442;9.212;2023-03-24T05:02:32;16.29;65.39
70170;DHT22;57543;45.442;9.212;2023-03-24T05:05:47;16.25;65.26
70170;DHT22;57543;45.442;9.212;2023-03-24T05:08:51;16.32;65.09
70170;DHT22;57543;45.442;9.212;2023-03-24T05:11:55;16.39;64.73
70170;DHT22;57543;45.442;9.212;2023-03-24T05:15:00;16.33;64.76
70170;DHT22;57543;45.442;9.212;2023-03-24T05:18:04;16.44;64.43
70170;DHT22;57543;45.442;9.212;2023-03-24T05:21:08;16.38;64.59
70170;DHT22;57543;45.442;9.212;2023-03-24T05:24:13;16.48;64.38
70170;DHT22;57543;45.442;9.212;2023-03-24T05:27:18;16.51;64.07
70170;DHT22;57543;45.442;9.212;2023-03-24T05:30:21;16.52;64.04
70170;DHT22;57543;45.442;9.212;2023-03-24T05:33:28;16.57;63.74
70170;DHT22;57543;45.442;9.212;2023-03-24T05:36:33;16.48;63.88
70170;DHT22;57543;45.442;9.212;2023-03-24T05:39:37;16.45;63.96
70170;DHT22;57543;45.442;9.212;2023-03-24T05:42:49;16.44;63.81
70170;DHT22;57543;45.442;9.212;2023-03-24T05:45:53;16.48;63.73
70170;DHT22;57543;45.442;9.212;2023-03-24T05:49:06;16.51;63.58
70170;DHT22;57543;45.442;9.212;2023-03-24T05:52:13;16.56;63.20
70170;DHT22;57543;45.442;9.212;2023-03-24T05:55:21;16.53;63.28
70170;DHT22;57543;45.442;9.212;2023-03-24T05:58:31;16.33;63.89
70170;DHT22;57543;45.442;9.212;2023-03-24T06:01:36;16.41;63.67
70170;DHT22;57543;45.442;9.212;2023-03-24T06:04:53;16.46;63.52
70170;DHT22;57543;45.442;9.212;2023-03-24T06:08:00;16.51;63.32
70170;DHT22;57543;45.442;9.212;2023-03-24T06:11:05;16.51;63.29
70170;DHT22;57543;45.442;9.212;2023-03-24T06:14:15;16.52;63.35
70170;DHT22;57543;45.442;9.212;2023-03-24T06:17:33;16.49;63.14
70170;DHT22;57543;45.442;9.212;2023-03-24T06:20:42;16.51;63.47
70170;DHT22;57543;45.442;9.212;2023-03-24T06:23:53;16.42;63.57
70170;DHT22;57543;45.442;9.212;2023-03-24T06:27:03;16.51;63.17
70170;DHT22;57543;45.442;9.212;2023-03-24T06:30:15;16.36;63.61
70170;DHT22;57543;45.442;9.212;2023-03-24T06:33:19;16.46;63.33
70170;DHT22;57543;45.442;9.212;2023-03-24T06:36:24;16.53;62.90
70170;DHT22;57543;45.442;9.212;2023-03-24T06:39:28;16.56;62.84
70170;DHT22;57543;45.442;9.212;2023-03-24T06:42:32;16.51;63.24
70170;DHT22;57543;45.442;9.212;2023-03-24T06:45:36;16.59;62.93
70170;DHT22;57543;45.442;9.212;2023-03-24T06:48:42;16.55;63.07
70170;DHT22;57543;45.442;9.212;2023-03-24T06:51:46;16.67;62.71
70170;DHT22;57543;45.442;9.212;2023-03-24T06:54:52;16.59;62.54
70170;DHT22;57543;45.442;9.212;2023-03-24T06:57:56;16.57;62.64
70170;DHT22;57543;45.442;9.212;2023-03-24T07:01:20;16.63;62.55
70170;DHT22;57543;45.442;9.212;2023-03-24T07:04:27;16.59;62.53
70170;DHT22;57543;45.442;9.212;2023-03-24T07:07:44;16.62;62.10
70170;DHT22;57543;45.442;9.212;2023-03-24T07:11:26;16.66;62.02
70170;DHT22;57543;45.442;9.212;2023-03-24T07:14:33;16.65;62.27
70170;DHT22;57543;45.442;9.212;2023-03-24T07:17:40;16.63;62.18
70170;DHT22;57543;45.442;9.212;2023-03-24T07:21:08;16.70;61.93
70170;DHT22;57543;45.442;9.212;2023-03-24T07:24:13;16.72;61.72
70170;DHT22;57543;45.442;9.212;2023-03-24T07:27:37;16.80;61.36
70170;DHT22;57543;45.442;9.212;2023-03-24T07:30:41;16.79;61.41
70170;DHT22;57543;45.442;9.212;2023-03-24T07:33:46;16.87;61.14
70170;DHT22;57543;45.442;9.212;2023-03-24T07:36:50;16.88;62.18
70170;DHT22;57543;45.442;9.212;2023-03-24T07:39:54;17.04;60.88
70170;DHT22;57543;45.442;9.212;2023-03-24T07:42:59;17.01;60.49
70170;DHT22;57543;45.442;9.212;2023-03-24T07:46:13;17.12;59.99
70170;DHT22;57543;45.442;9.212;2023-03-24T07:49:16;17.00;61.47
70170;DHT22;57543;45.442;9.212;2023-03-24T07:52:23;16.90;60.76
70170;DHT22;57543;45.442;9.212;2023-03-24T07:55:29;16.94;60.39
70170;DHT22;57543;45.442;9.212;2023-03-24T07:58:37;16.95;60.35
70170;DHT22;57543;45.442;9.212;2023-03-24T08:01:53;16.99;60.59
70170;DHT22;57543;45.442;9.212;2023-03-24T08:05:07;17.03;60.18
70170;DHT22;57543;45.442;9.212;2023-03-24T08:08:27;17.07;59.84
70170;DHT22;57543;45.442;9.212;2023-03-24T08:11:31;17.10;59.97
70170;DHT22;57543;45.442;9.212;2023-03-24T08:14:35;17.07;59.80
70170;DHT22;57543;45.442;9.212;2023-03-24T08:17:39;17.06;59.78
70170;DHT22;57543;45.442;9.212;2023-03-24T08:20:43;17.08;59.85
70170;DHT22;57543;45.442;9.212;2023-03-24T08:23:47;17.10;59.71
70170;DHT22;57543;45.442;9.212;2023-03-24T08:26:50;17.14;59.73
70170;DHT22;57543;45.442;9.212;2023-03-24T08:29:55;17.01;59.69
70170;DHT22;57543;45.442;9.212;2023-03-24T08:33:00;17.03;59.65
70170;DHT22;57543;45.442;9.212;2023-03-24T08:36:04;16.99;59.74
70170;DHT22;57543;45.442;9.212;2023-03-24T08:39:09;16.94;60.14
70170;DHT22;57543;45.442;9.212;2023-03-24T08:42:12;16.97;59.79
70170;DHT22;57543;45.442;9.212;2023-03-24T08:45:18;16.99;59.88
70170;DHT22;57543;45.442;9.212;2023-03-24T08:48:28;17.01;59.76
70170;DHT22;57543;45.442;9.212;2023-03-24T08:51:32;17.08;59.63
70170;DHT22;57543;45.442;9.212;2023-03-24T08:54:35;17.03;59.71
70170;DHT22;57543;45.442;9.212;2023-03-24T08:57:39;17.10;59.73
70170;DHT22;57543;45.442;9.212;2023-03-24T09:00:44;17.18;59.87
70170;DHT22;57543;45.442;9.212;2023-03-24T09:03:49;17.07;60.05
70170;DHT22;57543;45.442;9.212;2023-03-24T09:06:53;17.01;60.11
70170;DHT22;57543;45.442;9.212;2023-03-24T09:10:03;17.08;59.97
70170;DHT22;57543;45.442;9.212;2023-03-24T09:13:08;17.10;60.11
70170;DHT22;57543;45.442;9.212;2023-03-24T09:16:13;17.12;59.84
70170;DHT22;57543;45.442;9.212;2023-03-24T09:19:09;17.18;59.79
70170;DHT22;57543;45.442;9.212;2023-03-24T09:22:12;17.12;59.87
70170;DHT22;57543;45.442;9.212;2023-03-24T09:25:18;17.14;59.79
70170;DHT22;57543;45.442;9.212;2023-03-24T09:28:22;17.15;60.27
70170;DHT22;57543;45.442;9.212;2023-03-24T09:31:26;17.14;60.07
70170;DHT22;57543;45.442;9.212;2023-03-24T09:34:29;17.19;59.90
70170;DHT22;57543;45.442;9.212;2023-03-24T09:37:36;17.24;59.72
70170;DHT22;57543;45.442;9.212;2023-03-24T09:40:41;17.28;59.70
70170;DHT22;57543;45.442;9.212;2023-03-24T09:44:13;17.19;59.98
70170;DHT22;57543;45.442;9.212;2023-03-24T09:47:27;17.19;59.97
70170;DHT22;57543;45.442;9.212;2023-03-24T09:50:42;17.29;59.82
70170;DHT22;57543;45.442;9.212;2023-03-24T09:57:04;17.34;60.08
70170;DHT22;57543;45.442;9.212;2023-03-24T10:00:23;17.42;59.52
70170;DHT22;57543;45.442;9.212;2023-03-24T10:03:27;17.46;59.50
70170;DHT22;57543;45.442;9.212;2023-03-24T10:06:35;17.46;59.86
70170;DHT22;57543;45.442;9.212;2023-03-24T10:09:43;17.53;59.82
70170;DHT22;57543;45.442;9.212;2023-03-24T10:12:48;17.66;59.67
70170;DHT22;57543;45.442;9.212;2023-03-24T10:23:44;18.14;58.22
70170;DHT22;57543;45.442;9.212;2023-03-24T10:27:27;18.32;57.85
70170;DHT22;57543;45.442;9.212;2023-03-24T10:30:34;18.39;57.79
70170;DHT22;57543;45.442;9.212;2023-03-24T10:33:41;18.43;58.29
70170;DHT22;57543;45.442;9.212;2023-03-24T10:36:45;18.55;57.43
70170;DHT22;57543;45.442;9.212;2023-03-24T10:39:50;18.67;57.73
70170;DHT22;57543;45.442;9.212;2023-03-24T10:42:54;18.80;57.40
70170;DHT22;57543;45.442;9.212;2023-03-24T10:46:00;18.86;57.01
70170;DHT22;57543;45.442;9.212;2023-03-24T10:49:14;18.98;56.40
70170;DHT22;57543;45.442;9.212;2023-03-24T10:52:18;18.91;56.66
70170;DHT22;57543;45.442;9.212;2023-03-24T10:55:29;18.74;58.27
70170;DHT22;57543;45.442;9.212;2023-03-24T10:58:39;18.80;57.71
70170;DHT22;57543;45.442;9.212;2023-03-24T11:01:44;18.86;57.23
70170;DHT22;57543;45.442;9.212;2023-03-24T11:04:54;18.97;56.61
70170;DHT22;57543;45.442;9.212;2023-03-24T11:08:34;19.00;56.59
70170;DHT22;57543;45.442;9.212;2023-03-24T11:11:36;19.04;56.51
70170;DHT22;57543;45.442;9.212;2023-03-24T11:14:43;18.93;57.50
70170;DHT22;57543;45.442;9.212;2023-03-24T11:18:13;19.03;56.87
70170;DHT22;57543;45.442;9.212;2023-03-24T11:21:19;18.80;57.85
70170;DHT22;57543;45.442;9.212;2023-03-24T11:24:23;18.73;58.21
70170;DHT22;57543;45.442;9.212;2023-03-24T11:27:27;18.87;57.32
70170;DHT22;57543;45.442;9.212;2023-03-24T11:30:47;19.00;57.36
70170;DHT22;57543;45.442;9.212;2023-03-24T11:37:15;19.22;56.55
70170;DHT22;57543;45.442;9.212;2023-03-24T11:40:24;19.38;56.38
70170;DHT22;57543;45.442;9.212;2023-03-24T11:43:28;19.56;55.74
70170;DHT22;57543;45.442;9.212;2023-03-24T11:46:33;20.24;54.24
70170;DHT22;57543;45.442;9.212;2023-03-24T11:49:45;21.52;51.46
70170;DHT22;57543;45.442;9.212;2023-03-24T11:56:30;23.12;47.12
70170;DHT22;57543;45.442;9.212;2023-03-24T11:59:41;23.45;46.42
70170;DHT22;57543;45.442;9.212;2023-03-24T12:07:02;22.28;48.54
70170;DHT22;57543;45.442;9.212;2023-03-24T12:10:21;21.82;49.60
70170;DHT22;57543;45.442;9.212;2023-03-24T12:13:36;21.29;51.23
70170;DHT22;57543;45.442;9.212;2023-03-24T12:20:22;21.11;51.25
70170;DHT22;57543;45.442;9.212;2023-03-24T12:23:37;21.08;50.50
70170;DHT22;57543;45.442;9.212;2023-03-24T12:26:43;20.91;50.90
70170;DHT22;57543;45.442;9.212;2023-03-24T12:30:01;20.79;51.53
70170;DHT22;57543;45.442;9.212;2023-03-24T12:36:39;20.46;51.47
70170;DHT22;57543;45.442;9.212;2023-03-24T12:39:51;20.25;51.61
70170;DHT22;57543;45.442;9.212;2023-03-24T12:43:08;20.35;51.59
70170;DHT22;57543;45.442;9.212;2023-03-24T12:46:37;20.43;51.82
70170;DHT22;57543;45.442;9.212;2023-03-24T12:53:08;20.88;52.90
70170;DHT22;57543;45.442;9.212;2023-03-24T12:56:18;21.24;50.52
70170;DHT22;57543;45.442;9.212;2023-03-24T12:59:41;21.50;48.94
70170;DHT22;57543;45.442;9.212;2023-03-24T13:02:55;21.76;49.39
70170;DHT22;57543;45.442;9.212;2023-03-24T13:06:14;21.93;48.62
70170;DHT22;57543;45.442;9.212;2023-03-24T13:09:30;22.22;47.92
70170;DHT22;57543;45.442;9.212;2023-03-24T13:13:01;22.25;47.71
70170;DHT22;57543;45.442;9.212;2023-03-24T13:19:20;22.46;47.99
70170;DHT22;57543;45.442;9.212;2023-03-24T13:22:26;22.73;47.32
70170;DHT22;57543;45.442;9.212;2023-03-24T13:25:44;23.03;46.08
70170;DHT22;57543;45.442;9.212;2023-03-24T13:31:56;23.39;45.30
70170;DHT22;57543;45.442;9.212;2023-03-24T13:38:54;23.58;44.53
70170;DHT22;57543;45.442;9.212;2023-03-24T13:41:58;23.65;44.08
70170;DHT22;57543;45.442;9.212;2023-03-24T13:45:05;23.62;44.27
70170;DHT22;57543;45.442;9.212;2023-03-24T13:51:32;23.90;43.59
70170;DHT22;57543;45.442;9.212;2023-03-24T13:54:37;23.69;43.15
70170;DHT22;57543;45.442;9.212;2023-03-24T13:57:54;23.70;43.98
70170;DHT22;57543;45.442;9.212;2023-03-24T14:01:15;23.56;44.91
70170;DHT22;57543;45.442;9.212;2023-03-24T14:04:25;23.51;43.90
70170;DHT22;57543;45.442;9.212;2023-03-24T14:10:44;23.12;44.73
70170;DHT22;57543;45.442;9.212;2023-03-24T14:13:48;23.07;44.66
70170;DHT22;57543;45.442;9.212;2023-03-24T14:17:10;22.97;44.69
70170;DHT22;57543;45.442;9.212;2023-03-24T14:20:32;23.10;44.69
70170;DHT22;57543;45.442;9.212;2023-03-24T14:23:43;22.69;45.40
70170;DHT22;57543;45.442;9.212;2023-03-24T14:26:49;22.66;45.49
70170;DHT22;57543;45.442;9.212;2023-03-24T14:29:53;22.53;45.19
70170;DHT22;57543;45.442;9.212;2023-03-24T14:32:57;22.45;45.25
70170;DHT22;57543;45.442;9.212;2023-03-24T14:36:04;22.31;45.54
70170;DHT22;57543;45.442;9.212;2023-03-24T14:39:18;22.22;45.64
70170;DHT22;57543;45.442;9.212;2023-03-24T14:42:26;22.00;45.63
70170;DHT22;57543;45.442;9.212;2023-03-24T14:45:40;21.56;47.55
70170;DHT22;57543;45.442;9.212;2023-03-24T14:48:57;21.45;47.72
70170;DHT22;57543;45.442;9.212;2023-03-24T14:52:31;21.37;47.37
70170;DHT22;57543;45.442;9.212;2023-03-24T14:55:36;21.31;47.13
70170;DHT22;57543;45.442;9.212;2023-03-24T14:58:40;21.32;47.23
70170;DHT22;57543;45.442;9.212;2023-03-24T15:01:46;21.14;48.03
70170;DHT22;57543;45.442;9.212;2023-03-24T15:05:14;20.75;49.79
70170;DHT22;57543;45.442;9.212;2023-03-24T15:08:22;20.79;48.90
70170;DHT22;57543;45.442;9.212;2023-03-24T15:11:31;20.81;48.89
70170;DHT22;57543;45.442;9.212;2023-03-24T15:14:35;20.69;48.80
70170;DHT22;57543;45.442;9.212;2023-03-24T15:17:42;20.66;48.67
70170;DHT22;57543;45.442;9.212;2023-03-24T15:20:46;20.55;49.09
70170;DHT22;57543;45.442;9.212;2023-03-24T15:23:50;20.52;49.32
70170;DHT22;57543;45.442;9.212;2023-03-24T15:30:12;20.57;48.59
70170;DHT22;57543;45.442;9.212;2023-03-24T15:33:17;20.52;48.59
70170;DHT22;57543;45.442;9.212;2023-03-24T15:36:21;20.55;48.74
70170;DHT22;57543;45.442;9.212;2023-03-24T15:39:51;20.50;48.40
70170;DHT22;57543;45.442;9.212;2023-03-24T15:42:57;20.43;48.35
70170;DHT22;57543;45.442;9.212;2023-03-24T15:46:01;20.42;48.46
70170;DHT22;57543;45.442;9.212;2023-03-24T15:49:24;20.35;48.94
70170;DHT22;57543;45.442;9.212;2023-03-24T15:52:31;20.31;48.78
70170;DHT22;57543;45.442;9.212;2023-03-24T15:55:37;20.26;49.02
70170;DHT22;57543;45.442;9.212;2023-03-24T15:58:45;20.15;49.35
70170;DHT22;57543;45.442;9.212;2023-03-24T16:01:50;20.07;49.47
70170;DHT22;57543;45.442;9.212;2023-03-24T16:04:59;20.04;49.60
70170;DHT22;57543;45.442;9.212;2023-03-24T16:08:06;19.86;50.12
70170;DHT22;57543;45.442;9.212;2023-03-24T16:11:12;19.76;51.15
70170;DHT22;57543;45.442;9.212;2023-03-24T16:14:27;19.62;50.77
70170;DHT22;57543;45.442;9.212;2023-03-24T16:17:31;19.69;50.66
70170;DHT22;57543;45.442;9.212;2023-03-24T16:20:35;19.69;50.46
70170;DHT22;57543;45.442;9.212;2023-03-24T16:23:39;19.63;50.15
70170;DHT22;57543;45.442;9.212;2023-03-24T16:26:44;19.67;50.14
70170;DHT22;57543;45.442;9.212;2023-03-24T16:29:48;19.60;50.34
70170;DHT22;57543;45.442;9.212;2023-03-24T16:32:52;19.60;50.35
70170;DHT22;57543;45.442;9.212;2023-03-24T16:35:55;19.55;50.65
70170;DHT22;57543;45.442;9.212;2023-03-24T16:38:59;19.49;50.95
70170;DHT22;57543;45.442;9.212;2023-03-24T16:42:07;19.42;51.41
70170;DHT22;57543;45.442;9.212;2023-03-24T16:45:10;19.38;51.48
70170;DHT22;57543;45.442;9.212;2023-03-24T16:48:15;19.34;51.84
70170;DHT22;57543;45.442;9.212;2023-03-24T16:51:19;19.28;51.96
70170;DHT22;57543;45.442;9.212;2023-03-24T16:54:23;19.28;51.91
70170;DHT22;57543;45.442;9.212;2023-03-24T16:57:27;19.01;52.18
70170;DHT22;57543;45.442;9.212;2023-03-24T17:00:32;18.76;52.86
70170;DHT22;57543;45.442;9.212;2023-03-24T17:03:36;18.67;53.08
70170;DHT22;57543;45.442;9.212;2023-03-24T17:06:44;18.66;53.10
70170;DHT22;57543;45.442;9.212;2023-03-24T17:09:51;18.70;53.16
70170;DHT22;57543;45.442;9.212;2023-03-24T17:12:55;18.71;53.13
70170;DHT22;57543;45.442;9.212;2023-03-24T17:16:00;18.88;52.95
70170;DHT22;57543;45.442;9.212;2023-03-24T17:19:07;18.64;53.44
70170;DHT22;57543;45.442;9.212;2023-03-24T17:22:10;18.64;53.35
70170;DHT22;57543;45.442;9.212;2023-03-24T17:25:21;18.67;53.07
70170;DHT22;57543;45.442;9.212;2023-03-24T17:28:25;18.67;53.07
70170;DHT22;57543;45.442;9.212;2023-03-24T17:31:28;18.64;53.19
70170;DHT22;57543;45.442;9.212;2023-03-24T17:34:32;18.70;53.11
70170;DHT22;57543;45.442;9.212;2023-03-24T17:37:36;18.70;52.96
70170;DHT22;57543;45.442;9.212;2023-03-24T17:40:39;18.67;52.91
70170;DHT22;57543;45.442;9.212;2023-03-24T17:43:44;18.69;52.84
70170;DHT22;57543;45.442;9.212;2023-03-24T17:46:49;18.62;53.11
70170;DHT22;57543;45.442;9.212;2023-03-24T17:49:53;18.57;53.29
70170;DHT22;57543;45.442;9.212;2023-03-24T17:52:56;18.51;53.32
70170;DHT22;57543;45.442;9.212;2023-03-24T17:56:01;18.49;53.45
70170;DHT22;57543;45.442;9.212;2023-03-24T17:59:08;18.43;53.66
70170;DHT22;57543;45.442;9.212;2023-03-24T18:02:12;18.38;53.71
70170;DHT22;57543;45.442;9.212;2023-03-24T18:05:15;18.34;53.92
70170;DHT22;57543;45.442;9.212;2023-03-24T18:08:19;18.26;54.02
70170;DHT22;57543;45.442;9.212;2023-03-24T18:11:23;18.26;53.99
70170;DHT22;57543;45.442;9.212;2023-03-24T18:14:27;18.08;54.69
70170;DHT22;57543;45.442;9.212;2023-03-24T18:17:30;18.09;54.53
70170;DHT22;57543;45.442;9.212;2023-03-24T18:20:34;18.07;54.68
70170;DHT22;57543;45.442;9.212;2023-03-24T18:23:38;18.09;54.38
70170;DHT22;57543;45.442;9.212;2023-03-24T18:26:42;18.02;54.88
70170;DHT22;57543;45.442;9.212;2023-03-24T18:29:46;18.04;54.88
70170;DHT22;57543;45.442;9.212;2023-03-24T18:32:50;17.80;55.26
70170;DHT22;57543;45.442;9.212;2023-03-24T18:35:54;17.83;55.32
70170;DHT22;57543;45.442;9.212;2023-03-24T18:39:02;17.84;55.45
70170;DHT22;57543;45.442;9.212;2023-03-24T18:42:09;17.90;55.26
70170;DHT22;57543;45.442;9.212;2023-03-24T18:45:13;17.87;55.49
70170;DHT22;57543;45.442;9.212;2023-03-24T18:48:20;17.80;55.67
70170;DHT22;57543;45.442;9.212;2023-03-24T18:51:24;17.84;55.61
70170;DHT22;57543;45.442;9.212;2023-03-24T18:54:28;17.94;55.42
70170;DHT22;57543;45.442;9.212;2023-03-24T18:57:32;17.89;55.57
70170;DHT22;57543;45.442;9.212;2023-03-24T19:00:38;17.93;55.51
70170;DHT22;57543;45.442;9.212;2023-03-24T19:03:48;17.84;55.72
70170;DHT22;57543;45.442;9.212;2023-03-24T19:06:52;17.86;55.77
70170;DHT22;57543;45.442;9.212;2023-03-24T19:09:56;17.83;55.90
70170;DHT22;57543;45.442;9.212;2023-03-24T19:13:01;17.87;55.86
70170;DHT22;57543;45.442;9.212;2023-03-24T19:16:07;17.80;55.92
70170;DHT22;57543;45.442;9.212;2023-03-24T19:19:11;17.83;56.02
70170;DHT22;57543;45.442;9.212;2023-03-24T19:22:15;17.79;56.21
70170;DHT22;57543;45.442;9.212;2023-03-24T19:25:23;17.81;56.25
70170;DHT22;57543;45.442;9.212;2023-03-24T19:28:30;17.70;56.50
70170;DHT22;57543;45.442;9.212;2023-03-24T19:31:34;17.67;56.59
70170;DHT22;57543;45.442;9.212;2023-03-24T19:34:38;17.69;56.74
70170;DHT22;57543;45.442;9.212;2023-03-24T19:37:42;17.65;56.83
70170;DHT22;57543;45.442;9.212;2023-03-24T19:40:45;17.62;56.97
70170;DHT22;57543;45.442;9.212;2023-03-24T19:43:49;17.55;57.23
70170;DHT22;57543;45.442;9.212;2023-03-24T19:46:54;17.61;57.16
70170;DHT22;57543;45.442;9.212;2023-03-24T19:49:57;17.57;57.40
70170;DHT22;57543;45.442;9.212;2023-03-24T19:53:01;17.55;57.51
70170;DHT22;57543;45.442;9.212;2023-03-24T19:56:05;17.59;57.53
70170;DHT22;57543;45.442;9.212;2023-03-24T19:59:09;17.46;57.81
70170;DHT22;57543;45.442;9.212;2023-03-24T20:02:15;17.32;58.55
70170;DHT22;57543;45.442;9.212;2023-03-24T20:05:19;17.32;58.44
70170;DHT22;57543;45.442;9.212;2023-03-24T20:08:23;17.31;58.57
70170;DHT22;57543;45.442;9.212;2023-03-24T20:11:28;17.36;58.23
70170;DHT22;57543;45.442;9.212;2023-03-24T20:14:32;17.40;58.39
70170;DHT22;57543;45.442;9.212;2023-03-24T20:17:35;17.42;58.25
70170;DHT22;57543;45.442;9.212;2023-03-24T20:20:41;17.43;58.09
70170;DHT22;57543;45.442;9.212;2023-03-24T20:23:45;17.38;58.35
70170;DHT22;57543;45.442;9.212;2023-03-24T20:26:49;17.36;58.36
70170;DHT22;57543;45.442;9.212;2023-03-24T20:29:55;17.32;58.53
70170;DHT22;57543;45.442;9.212;2023-03-24T20:32:59;17.39;58.41
70170;DHT22;57543;45.442;9.212;2023-03-24T20:36:04;17.39;58.50
70170;DHT22;57543;45.442;9.212;2023-03-24T20:39:08;17.40;58.41
70170;DHT22;57543;45.442;9.212;2023-03-24T20:42:12;17.39;58.54
70170;DHT22;57543;45.442;9.212;2023-03-24T20:45:16;17.42;58.49
70170;DHT22;57543;45.442;9.212;2023-03-24T20:48:20;17.39;58.48
70170;DHT22;57543;45.442;9.212;2023-03-24T20:51:24;17.35;58.81
70170;DHT22;57543;45.442;9.212;2023-03-24T20:54:31;17.38;58.70
70170;DHT22;57543;45.442;9.212;2023-03-24T20:57:34;17.35;58.93
70170;DHT22;57543;45.442;9.212;2023-03-24T21:00:38;17.29;59.03
70170;DHT22;57543;45.442;9.212;2023-03-24T21:03:48;17.32;58.96
70170;DHT22;57543;45.442;9.212;2023-03-24T21:06:52;17.28;58.90
70170;DHT22;57543;45.442;9.212;2023-03-24T21:09:56;17.31;59.00
70170;DHT22;57543;45.442;9.212;2023-03-24T21:13:00;17.32;58.94
70170;DHT22;57543;45.442;9.212;2023-03-24T21:16:08;17.31;59.12
70170;DHT22;57543;45.442;9.212;2023-03-24T21:19:13;17.35;59.04
70170;DHT22;57543;45.442;9.212;2023-03-24T21:22:17;17.31;59.08
70170;DHT22;57543;45.442;9.212;2023-03-24T21:25:23;17.24;59.31